RYS7054 LGKO-EPKT
Flight info
| Callsign | RYS7054 |
|---|---|
| Flight time | 2h 24m |
| Altitude | 36000 |
| Route | LARKI UL609 MES DCT ATFIR N133 USALI DCT LOMOS DCT NARKA DCT PERIT DCT KEKED DCT LENOV |
| Aircraft | B738/M-SDE3FGIJ1LRWY/SB1 |
Departure
| Time | 2026-05-05 11:19 |
|---|---|
| Airport | Kos International Airport "Ippokratis" (LGKO) |
Arrival
| Time | 2026-05-05 13:43 |
|---|---|
| Airport | Katowice Wojciech Korfanty International Airport (EPKT) |
| Time | Latitude | Longitude | Altitude | Speed | Heading |
|---|---|---|---|---|---|
| 2026-05-05 10:36 | 36.80180 | 27.08900 | 416 ft | 0 kts | 57° |
| 2026-05-05 11:11 | 36.80177 | 27.08895 | 418 ft | 3 kts | 57° |
| 2026-05-05 11:11 | 36.80164 | 27.08868 | 407 ft | 2 kts | 58° |
| 2026-05-05 11:11 | 36.80153 | 27.08844 | 409 ft | 4 kts | 74° |
| 2026-05-05 11:12 | 36.80152 | 27.08815 | 410 ft | 4 kts | 131° |
| 2026-05-05 11:12 | 36.80172 | 27.08797 | 410 ft | 4 kts | 148° |
| 2026-05-05 11:12 | 36.80177 | 27.08794 | 413 ft | 3 kts | 148° |
| 2026-05-05 11:14 | 36.80176 | 27.08794 | 413 ft | 1 kts | 147° |
| 2026-05-05 11:14 | 36.80147 | 27.08817 | 408 ft | 9 kts | 148° |
| 2026-05-05 11:15 | 36.80079 | 27.08871 | 415 ft | 14 kts | 147° |
| 2026-05-05 11:15 | 36.79981 | 27.08947 | 418 ft | 18 kts | 148° |
| 2026-05-05 11:15 | 36.79866 | 27.08982 | 409 ft | 17 kts | 178° |
| 2026-05-05 11:15 | 36.79750 | 27.08986 | 415 ft | 16 kts | 178° |
| 2026-05-05 11:16 | 36.79638 | 27.08991 | 413 ft | 16 kts | 174° |
| 2026-05-05 11:16 | 36.79530 | 27.09058 | 411 ft | 20 kts | 148° |
| 2026-05-05 11:16 | 36.79395 | 27.09163 | 414 ft | 26 kts | 148° |
| 2026-05-05 11:16 | 36.79222 | 27.09299 | 405 ft | 33 kts | 147° |
| 2026-05-05 11:17 | 36.79024 | 27.09456 | 397 ft | 35 kts | 146° |
| 2026-05-05 11:17 | 36.78821 | 27.09613 | 393 ft | 34 kts | 148° |
| 2026-05-05 11:17 | 36.78636 | 27.09756 | 391 ft | 21 kts | 146° |
| 2026-05-05 11:17 | 36.78566 | 27.09809 | 387 ft | 11 kts | 277° |
| 2026-05-05 11:18 | 36.78628 | 27.09760 | 391 ft | 11 kts | 328° |
| 2026-05-05 11:18 | 36.78756 | 27.09661 | 392 ft | 49 kts | 328° |
| 2026-05-05 11:18 | 36.79229 | 27.09293 | 406 ft | 109 kts | 328° |
| 2026-05-05 11:18 | 36.80017 | 27.08686 | 470 ft | 151 kts | 331° |
| 2026-05-05 11:19 | 36.80901 | 27.07994 | 1074 ft | 154 kts | 328° |
| 2026-05-05 11:19 | 36.81554 | 27.07013 | 1965 ft | 148 kts | 290° |
| 2026-05-05 11:19 | 36.81595 | 27.05626 | 2397 ft | 178 kts | 263° |
| 2026-05-05 11:19 | 36.81247 | 27.04018 | 2823 ft | 201 kts | 271° |
| 2026-05-05 11:20 | 36.81653 | 27.02350 | 3118 ft | 207 kts | 309° |
| 2026-05-05 11:20 | 36.82533 | 27.00934 | 3670 ft | 209 kts | 313° |
| 2026-05-05 11:20 | 36.83489 | 26.99424 | 3841 ft | 234 kts | 311° |
| 2026-05-05 11:20 | 36.84624 | 26.97906 | 4286 ft | 241 kts | 328° |
| 2026-05-05 11:21 | 36.86036 | 26.96825 | 4993 ft | 242 kts | 333° |
| 2026-05-05 11:21 | 36.87485 | 26.95749 | 5718 ft | 243 kts | 333° |
| 2026-05-05 11:21 | 36.88944 | 26.94660 | 6434 ft | 245 kts | 333° |
| 2026-05-05 11:21 | 36.90418 | 26.93559 | 7071 ft | 249 kts | 333° |
| 2026-05-05 11:22 | 36.91922 | 26.92433 | 7676 ft | 254 kts | 332° |
| 2026-05-05 11:22 | 36.93454 | 26.91288 | 8293 ft | 258 kts | 332° |
| 2026-05-05 11:22 | 36.95011 | 26.90123 | 8891 ft | 263 kts | 332° |
| 2026-05-05 11:22 | 36.96598 | 26.88935 | 9517 ft | 267 kts | 332° |
| 2026-05-05 11:23 | 36.98189 | 26.87743 | 10102 ft | 271 kts | 331° |
| 2026-05-05 11:23 | 36.99847 | 26.86500 | 10376 ft | 288 kts | 331° |
| 2026-05-05 11:23 | 37.01632 | 26.85164 | 10544 ft | 307 kts | 331° |
| 2026-05-05 11:23 | 37.03522 | 26.83747 | 10730 ft | 323 kts | 331° |
| 2026-05-05 11:24 | 37.05451 | 26.82297 | 11183 ft | 330 kts | 330° |
| 2026-05-05 11:24 | 37.07427 | 26.80810 | 11792 ft | 332 kts | 330° |
| 2026-05-05 11:24 | 37.09415 | 26.79313 | 12417 ft | 334 kts | 330° |
| 2026-05-05 11:24 | 37.11422 | 26.77801 | 13029 ft | 337 kts | 330° |
| 2026-05-05 11:25 | 37.13446 | 26.76276 | 13662 ft | 340 kts | 330° |
| 2026-05-05 11:25 | 37.15486 | 26.74739 | 14243 ft | 344 kts | 330° |
| 2026-05-05 11:25 | 37.17522 | 26.73203 | 14831 ft | 346 kts | 329° |
| 2026-05-05 11:25 | 37.19586 | 26.71646 | 15439 ft | 348 kts | 329° |
| 2026-05-05 11:26 | 37.21672 | 26.70070 | 16022 ft | 350 kts | 329° |
| 2026-05-05 11:26 | 37.23774 | 26.68481 | 16600 ft | 353 kts | 328° |
| 2026-05-05 11:26 | 37.25891 | 26.66882 | 17177 ft | 356 kts | 328° |
| 2026-05-05 11:26 | 37.28026 | 26.65267 | 17752 ft | 359 kts | 328° |
| 2026-05-05 11:27 | 37.30171 | 26.63643 | 18328 ft | 361 kts | 328° |
| 2026-05-05 11:27 | 37.32332 | 26.62007 | 18806 ft | 364 kts | 328° |
| 2026-05-05 11:27 | 37.34482 | 26.60378 | 19272 ft | 367 kts | 327° |
| 2026-05-05 11:27 | 37.36680 | 26.58712 | 19768 ft | 369 kts | 327° |
| 2026-05-05 11:28 | 37.38893 | 26.57033 | 20216 ft | 372 kts | 327° |
| 2026-05-05 11:28 | 37.41122 | 26.55339 | 20667 ft | 375 kts | 327° |
| 2026-05-05 11:28 | 37.43369 | 26.53631 | 21101 ft | 378 kts | 327° |
| 2026-05-05 11:28 | 37.45633 | 26.51909 | 21538 ft | 381 kts | 327° |
| 2026-05-05 11:29 | 37.47885 | 26.50195 | 21955 ft | 384 kts | 327° |
| 2026-05-05 11:29 | 37.50184 | 26.48444 | 22374 ft | 386 kts | 327° |
| 2026-05-05 11:29 | 37.52498 | 26.46680 | 22784 ft | 389 kts | 327° |
| 2026-05-05 11:29 | 37.54826 | 26.44904 | 23189 ft | 392 kts | 327° |
| 2026-05-05 11:30 | 37.57142 | 26.43137 | 23580 ft | 395 kts | 327° |
| 2026-05-05 11:30 | 37.59503 | 26.41334 | 23952 ft | 396 kts | 327° |
| 2026-05-05 11:30 | 37.61865 | 26.39529 | 24317 ft | 397 kts | 327° |
| 2026-05-05 11:30 | 37.64237 | 26.37715 | 24692 ft | 398 kts | 327° |
| 2026-05-05 11:31 | 37.66613 | 26.35897 | 25042 ft | 399 kts | 327° |
| 2026-05-05 11:31 | 37.68989 | 26.34077 | 25393 ft | 401 kts | 327° |
| 2026-05-05 11:31 | 37.71381 | 26.32242 | 25732 ft | 402 kts | 327° |
| 2026-05-05 11:31 | 37.73748 | 26.30425 | 26062 ft | 403 kts | 327° |
| 2026-05-05 11:32 | 37.76157 | 26.28575 | 26384 ft | 404 kts | 327° |
| 2026-05-05 11:32 | 37.78567 | 26.26723 | 26708 ft | 405 kts | 327° |
| 2026-05-05 11:32 | 37.80980 | 26.24868 | 27015 ft | 406 kts | 327° |
| 2026-05-05 11:32 | 37.83366 | 26.23032 | 27316 ft | 407 kts | 327° |
| 2026-05-05 11:33 | 37.85786 | 26.21168 | 27602 ft | 408 kts | 327° |
| 2026-05-05 11:33 | 37.88212 | 26.19299 | 27898 ft | 409 kts | 327° |
| 2026-05-05 11:33 | 37.90646 | 26.17420 | 28178 ft | 410 kts | 328° |
| 2026-05-05 11:33 | 37.93084 | 26.15538 | 28459 ft | 411 kts | 328° |
| 2026-05-05 11:34 | 37.95532 | 26.13647 | 28712 ft | 412 kts | 328° |
| 2026-05-05 11:34 | 37.97987 | 26.11748 | 28971 ft | 413 kts | 328° |
| 2026-05-05 11:34 | 38.00451 | 26.09841 | 29227 ft | 414 kts | 328° |
| 2026-05-05 11:34 | 38.02909 | 26.07937 | 29485 ft | 414 kts | 328° |
| 2026-05-05 11:35 | 38.05337 | 26.06055 | 29824 ft | 412 kts | 328° |
| 2026-05-05 11:35 | 38.07781 | 26.04160 | 30223 ft | 409 kts | 328° |
| 2026-05-05 11:35 | 38.10212 | 26.02273 | 30523 ft | 408 kts | 328° |
| 2026-05-05 11:35 | 38.12640 | 26.00386 | 30751 ft | 408 kts | 328° |
| 2026-05-05 11:36 | 38.15069 | 25.98497 | 30968 ft | 408 kts | 328° |
| 2026-05-05 11:36 | 38.17455 | 25.96640 | 31225 ft | 406 kts | 328° |
| 2026-05-05 11:36 | 38.19870 | 25.94759 | 31488 ft | 405 kts | 328° |
| 2026-05-05 11:36 | 38.22277 | 25.92883 | 31720 ft | 405 kts | 328° |
| 2026-05-05 11:37 | 38.24673 | 25.91015 | 31972 ft | 403 kts | 328° |
| 2026-05-05 11:37 | 38.27128 | 25.89275 | 32206 ft | 403 kts | 332° |
| 2026-05-05 11:37 | 38.29607 | 25.87664 | 32398 ft | 403 kts | 332° |
| 2026-05-05 11:37 | 38.32114 | 25.86070 | 32624 ft | 402 kts | 333° |
| 2026-05-05 11:38 | 38.34621 | 25.84482 | 32858 ft | 401 kts | 333° |
| 2026-05-05 11:38 | 38.37119 | 25.82896 | 33071 ft | 401 kts | 332° |
| 2026-05-05 11:38 | 38.39621 | 25.81298 | 33269 ft | 400 kts | 332° |
| 2026-05-05 11:38 | 38.42110 | 25.79701 | 33475 ft | 400 kts | 332° |
| 2026-05-05 11:39 | 38.44595 | 25.78101 | 33691 ft | 399 kts | 332° |
| 2026-05-05 11:39 | 38.47040 | 25.76523 | 33880 ft | 398 kts | 332° |
| 2026-05-05 11:39 | 38.49519 | 25.74920 | 34055 ft | 398 kts | 332° |
| 2026-05-05 11:39 | 38.51997 | 25.73315 | 34221 ft | 398 kts | 332° |
| 2026-05-05 11:40 | 38.54472 | 25.71711 | 34348 ft | 398 kts | 332° |
| 2026-05-05 11:40 | 38.56918 | 25.70123 | 34484 ft | 398 kts | 332° |
| 2026-05-05 11:40 | 38.59393 | 25.68516 | 34617 ft | 398 kts | 332° |
| 2026-05-05 11:40 | 38.61864 | 25.66911 | 34748 ft | 398 kts | 332° |
| 2026-05-05 11:41 | 38.64341 | 25.65299 | 34861 ft | 398 kts | 332° |
| 2026-05-05 11:41 | 38.66786 | 25.63708 | 34989 ft | 398 kts | 332° |
| 2026-05-05 11:41 | 38.69258 | 25.62098 | 35103 ft | 398 kts | 332° |
| 2026-05-05 11:42 | 38.74218 | 25.58864 | 35283 ft | 400 kts | 332° |
| 2026-05-05 11:42 | 38.76704 | 25.57241 | 35398 ft | 400 kts | 332° |
| 2026-05-05 11:42 | 38.79189 | 25.55618 | 35525 ft | 400 kts | 332° |
| 2026-05-05 11:42 | 38.81636 | 25.54018 | 35631 ft | 400 kts | 332° |
| 2026-05-05 11:43 | 38.84123 | 25.52391 | 35728 ft | 400 kts | 332° |
| 2026-05-05 11:43 | 38.86600 | 25.50769 | 35841 ft | 400 kts | 332° |
| 2026-05-05 11:43 | 38.89082 | 25.49142 | 35950 ft | 400 kts | 332° |
| 2026-05-05 11:43 | 38.91567 | 25.47513 | 36054 ft | 399 kts | 332° |
| 2026-05-05 11:44 | 38.94014 | 25.45906 | 36081 ft | 400 kts | 332° |
| 2026-05-05 11:44 | 38.98983 | 25.42641 | 36089 ft | 401 kts | 332° |
| 2026-05-05 11:45 | 39.03964 | 25.39362 | 36087 ft | 402 kts | 332° |
| 2026-05-05 11:45 | 39.08940 | 25.36081 | 36086 ft | 402 kts | 332° |
| 2026-05-05 11:46 | 39.13925 | 25.32789 | 36085 ft | 402 kts | 332° |
| 2026-05-05 11:46 | 39.18908 | 25.29494 | 36082 ft | 402 kts | 332° |
| 2026-05-05 11:47 | 39.23858 | 25.26215 | 36082 ft | 402 kts | 332° |
| 2026-05-05 11:47 | 39.28833 | 25.22914 | 36083 ft | 401 kts | 332° |
| 2026-05-05 11:48 | 39.36272 | 25.17968 | 36082 ft | 400 kts | 332° |
| 2026-05-05 11:48 | 39.41220 | 25.14672 | 36081 ft | 400 kts | 332° |
| 2026-05-05 11:49 | 39.46160 | 25.11376 | 36080 ft | 399 kts | 332° |
| 2026-05-05 11:49 | 39.51093 | 25.08079 | 36078 ft | 399 kts | 332° |
| 2026-05-05 11:50 | 39.56018 | 25.04782 | 36079 ft | 398 kts | 332° |
| 2026-05-05 11:50 | 39.60911 | 25.01501 | 36075 ft | 398 kts | 332° |
| 2026-05-05 11:51 | 39.65830 | 24.98198 | 36076 ft | 398 kts | 332° |
| 2026-05-05 11:51 | 39.70747 | 24.94890 | 36076 ft | 398 kts | 332° |
| 2026-05-05 11:52 | 39.75660 | 24.91580 | 36076 ft | 398 kts | 332° |
| 2026-05-05 11:52 | 39.80575 | 24.88264 | 36080 ft | 398 kts | 332° |
| 2026-05-05 11:53 | 39.85489 | 24.84942 | 36077 ft | 398 kts | 332° |
| 2026-05-05 11:53 | 39.90379 | 24.81632 | 36077 ft | 398 kts | 332° |
| 2026-05-05 11:54 | 39.95297 | 24.78297 | 36076 ft | 399 kts | 332° |
| 2026-05-05 11:54 | 40.00217 | 24.74955 | 36075 ft | 399 kts | 332° |
| 2026-05-05 11:55 | 40.04309 | 24.72171 | 36075 ft | 399 kts | 332° |
| 2026-05-05 11:55 | 40.09234 | 24.68816 | 36075 ft | 399 kts | 332° |
| 2026-05-05 11:56 | 40.14158 | 24.65456 | 36077 ft | 399 kts | 332° |
| 2026-05-05 11:56 | 40.19084 | 24.62089 | 36076 ft | 399 kts | 332° |
| 2026-05-05 11:57 | 40.24013 | 24.58715 | 36077 ft | 400 kts | 332° |
| 2026-05-05 11:57 | 40.28938 | 24.55337 | 36075 ft | 400 kts | 332° |
| 2026-05-05 11:58 | 40.33865 | 24.51953 | 36076 ft | 400 kts | 332° |
| 2026-05-05 11:58 | 40.38784 | 24.48568 | 36074 ft | 400 kts | 332° |
| 2026-05-05 11:59 | 40.43689 | 24.45188 | 36075 ft | 399 kts | 332° |
| 2026-05-05 11:59 | 40.48611 | 24.41791 | 36076 ft | 399 kts | 332° |
| 2026-05-05 12:00 | 40.53532 | 24.38387 | 36071 ft | 399 kts | 332° |
| 2026-05-05 12:00 | 40.58455 | 24.34978 | 36067 ft | 399 kts | 332° |
| 2026-05-05 12:01 | 40.63338 | 24.31590 | 36071 ft | 399 kts | 332° |
| 2026-05-05 12:01 | 40.68252 | 24.28175 | 36070 ft | 400 kts | 332° |
| 2026-05-05 12:02 | 40.73170 | 24.24751 | 36068 ft | 400 kts | 332° |
| 2026-05-05 12:02 | 40.78090 | 24.21320 | 36062 ft | 400 kts | 332° |
| 2026-05-05 12:03 | 40.83013 | 24.17882 | 36064 ft | 400 kts | 332° |
| 2026-05-05 12:03 | 40.87937 | 24.14437 | 36053 ft | 401 kts | 332° |
| 2026-05-05 12:04 | 40.92871 | 24.10973 | 36051 ft | 402 kts | 332° |
| 2026-05-05 12:04 | 40.97828 | 24.07496 | 36049 ft | 403 kts | 332° |
| 2026-05-05 12:05 | 41.02743 | 24.04041 | 36039 ft | 403 kts | 332° |
| 2026-05-05 12:05 | 41.07681 | 24.00563 | 36035 ft | 401 kts | 332° |
| 2026-05-05 12:06 | 41.12605 | 23.97088 | 36031 ft | 400 kts | 332° |
| 2026-05-05 12:06 | 41.17521 | 23.93612 | 36028 ft | 400 kts | 332° |
| 2026-05-05 12:07 | 41.22420 | 23.90143 | 36027 ft | 399 kts | 332° |
| 2026-05-05 12:07 | 41.27313 | 23.86672 | 36041 ft | 398 kts | 331° |
| 2026-05-05 12:08 | 41.32206 | 23.83195 | 36024 ft | 399 kts | 331° |
| 2026-05-05 12:08 | 41.37109 | 23.79706 | 36030 ft | 399 kts | 332° |
| 2026-05-05 12:09 | 41.42320 | 23.77192 | 36038 ft | 401 kts | 347° |
| 2026-05-05 12:09 | 41.47859 | 23.76336 | 36040 ft | 404 kts | 352° |
| 2026-05-05 12:10 | 41.53467 | 23.75593 | 36040 ft | 405 kts | 352° |
| 2026-05-05 12:10 | 41.59120 | 23.74813 | 36033 ft | 406 kts | 352° |
| 2026-05-05 12:11 | 41.64714 | 23.74022 | 36040 ft | 407 kts | 352° |
| 2026-05-05 12:11 | 41.70344 | 23.73220 | 36044 ft | 407 kts | 352° |
| 2026-05-05 12:12 | 41.75973 | 23.72416 | 36050 ft | 407 kts | 352° |
| 2026-05-05 12:12 | 41.81610 | 23.71610 | 36049 ft | 407 kts | 352° |
| 2026-05-05 12:13 | 41.87245 | 23.70802 | 36053 ft | 406 kts | 352° |
| 2026-05-05 12:13 | 41.92866 | 23.69996 | 36060 ft | 406 kts | 352° |
| 2026-05-05 12:14 | 41.98474 | 23.69190 | 36059 ft | 405 kts | 352° |
| 2026-05-05 12:14 | 42.04080 | 23.68382 | 36069 ft | 405 kts | 352° |
| 2026-05-05 12:15 | 42.09644 | 23.67579 | 36062 ft | 404 kts | 352° |
| 2026-05-05 12:15 | 42.15238 | 23.66771 | 36060 ft | 403 kts | 352° |
| 2026-05-05 12:16 | 42.20812 | 23.65963 | 36079 ft | 403 kts | 352° |
| 2026-05-05 12:16 | 42.26407 | 23.65151 | 36066 ft | 404 kts | 352° |
| 2026-05-05 12:17 | 42.31999 | 23.64241 | 36065 ft | 404 kts | 349° |
| 2026-05-05 12:17 | 42.37369 | 23.62912 | 36073 ft | 404 kts | 347° |
| 2026-05-05 12:18 | 42.42896 | 23.61444 | 36072 ft | 405 kts | 348° |
| 2026-05-05 12:18 | 42.48401 | 23.60010 | 36066 ft | 406 kts | 348° |
| 2026-05-05 12:19 | 42.53955 | 23.58588 | 36073 ft | 406 kts | 348° |
| 2026-05-05 12:19 | 42.59516 | 23.57172 | 36075 ft | 407 kts | 348° |
| 2026-05-05 12:20 | 42.65080 | 23.55755 | 36070 ft | 407 kts | 348° |
| 2026-05-05 12:20 | 42.70659 | 23.54331 | 36078 ft | 407 kts | 348° |
| 2026-05-05 12:21 | 42.76230 | 23.52906 | 36072 ft | 408 kts | 348° |
| 2026-05-05 12:21 | 42.81804 | 23.51478 | 36065 ft | 407 kts | 348° |
| 2026-05-05 12:22 | 42.87338 | 23.50057 | 36064 ft | 407 kts | 348° |
| 2026-05-05 12:22 | 42.92904 | 23.48626 | 36067 ft | 407 kts | 348° |
| 2026-05-05 12:23 | 42.98477 | 23.47190 | 36065 ft | 407 kts | 348° |
| 2026-05-05 12:23 | 43.04049 | 23.45752 | 36045 ft | 407 kts | 348° |
| 2026-05-05 12:24 | 43.09616 | 23.44312 | 36054 ft | 408 kts | 348° |
| 2026-05-05 12:24 | 43.15193 | 23.42867 | 36046 ft | 408 kts | 348° |
| 2026-05-05 12:25 | 43.20739 | 23.41427 | 36052 ft | 408 kts | 348° |
| 2026-05-05 12:25 | 43.26326 | 23.39975 | 36039 ft | 408 kts | 348° |
| 2026-05-05 12:26 | 43.31906 | 23.38521 | 36040 ft | 408 kts | 348° |
| 2026-05-05 12:26 | 43.37479 | 23.37066 | 36042 ft | 407 kts | 348° |
| 2026-05-05 12:27 | 43.43045 | 23.35611 | 36039 ft | 407 kts | 348° |
| 2026-05-05 12:27 | 43.48620 | 23.34150 | 36029 ft | 407 kts | 348° |
| 2026-05-05 12:28 | 43.54180 | 23.32690 | 36032 ft | 407 kts | 348° |
| 2026-05-05 12:28 | 43.59743 | 23.31227 | 36032 ft | 407 kts | 348° |
| 2026-05-05 12:29 | 43.65301 | 23.29763 | 36026 ft | 407 kts | 348° |
| 2026-05-05 12:29 | 43.70865 | 23.28294 | 36029 ft | 407 kts | 348° |
| 2026-05-05 12:30 | 43.76400 | 23.26830 | 36019 ft | 408 kts | 348° |
| 2026-05-05 12:30 | 43.81982 | 23.25351 | 36034 ft | 408 kts | 348° |
| 2026-05-05 12:31 | 43.87512 | 23.23522 | 36020 ft | 409 kts | 344° |
| 2026-05-05 12:31 | 43.92999 | 23.21374 | 36018 ft | 409 kts | 343° |
| 2026-05-05 12:32 | 43.98478 | 23.19214 | 36017 ft | 410 kts | 344° |
| 2026-05-05 12:32 | 44.03972 | 23.17076 | 36015 ft | 410 kts | 344° |
| 2026-05-05 12:33 | 44.09435 | 23.14964 | 36017 ft | 410 kts | 344° |
| 2026-05-05 12:33 | 44.14944 | 23.12836 | 36015 ft | 411 kts | 344° |
| 2026-05-05 12:34 | 44.20452 | 23.10706 | 36016 ft | 411 kts | 344° |
| 2026-05-05 12:34 | 44.25972 | 23.08566 | 36014 ft | 411 kts | 344° |
| 2026-05-05 12:35 | 44.31490 | 23.06423 | 36017 ft | 411 kts | 344° |
| 2026-05-05 12:35 | 44.36967 | 23.04291 | 36018 ft | 411 kts | 344° |
| 2026-05-05 12:36 | 44.42476 | 23.02142 | 36017 ft | 411 kts | 344° |
| 2026-05-05 12:36 | 44.47994 | 22.99986 | 36014 ft | 411 kts | 344° |
| 2026-05-05 12:37 | 44.53511 | 22.97826 | 36008 ft | 411 kts | 344° |
| 2026-05-05 12:37 | 44.59025 | 22.95663 | 36019 ft | 411 kts | 344° |
| 2026-05-05 12:38 | 44.64545 | 22.93493 | 36019 ft | 412 kts | 344° |
| 2026-05-05 12:38 | 44.70058 | 22.91322 | 36015 ft | 412 kts | 344° |
| 2026-05-05 12:39 | 44.75582 | 22.89142 | 36007 ft | 412 kts | 344° |
| 2026-05-05 12:39 | 44.81071 | 22.86972 | 36015 ft | 412 kts | 344° |
| 2026-05-05 12:40 | 44.86597 | 22.84782 | 36018 ft | 412 kts | 344° |
| 2026-05-05 12:40 | 44.92127 | 22.82587 | 36027 ft | 413 kts | 344° |
| 2026-05-05 12:41 | 44.97657 | 22.80387 | 36017 ft | 413 kts | 344° |
| 2026-05-05 12:41 | 45.03191 | 22.78182 | 36022 ft | 413 kts | 344° |
| 2026-05-05 12:42 | 45.08735 | 22.75968 | 36015 ft | 413 kts | 344° |
| 2026-05-05 12:42 | 45.13333 | 22.74128 | 36015 ft | 413 kts | 344° |
| 2026-05-05 12:43 | 45.19759 | 22.71552 | 36020 ft | 413 kts | 344° |
| 2026-05-05 12:43 | 45.25290 | 22.69329 | 36020 ft | 413 kts | 343° |
| 2026-05-05 12:44 | 45.29891 | 22.67477 | 36029 ft | 413 kts | 343° |
| 2026-05-05 12:44 | 45.35428 | 22.65244 | 36024 ft | 414 kts | 343° |
| 2026-05-05 12:45 | 45.40978 | 22.63000 | 36013 ft | 415 kts | 343° |
| 2026-05-05 12:45 | 45.46532 | 22.60752 | 36023 ft | 415 kts | 343° |
| 2026-05-05 12:46 | 45.52094 | 22.58494 | 36010 ft | 416 kts | 343° |
| 2026-05-05 12:46 | 45.57631 | 22.56243 | 36009 ft | 416 kts | 343° |
| 2026-05-05 12:47 | 45.63208 | 22.53971 | 36013 ft | 416 kts | 343° |
| 2026-05-05 12:47 | 45.68783 | 22.51695 | 36005 ft | 417 kts | 343° |
| 2026-05-05 12:48 | 45.74360 | 22.49413 | 35997 ft | 416 kts | 343° |
| 2026-05-05 12:48 | 45.79935 | 22.47127 | 35996 ft | 416 kts | 343° |
| 2026-05-05 12:49 | 45.85509 | 22.44837 | 35999 ft | 416 kts | 343° |
| 2026-05-05 12:49 | 45.91037 | 22.42562 | 35994 ft | 416 kts | 343° |
| 2026-05-05 12:50 | 45.96601 | 22.40266 | 35994 ft | 416 kts | 343° |
| 2026-05-05 12:50 | 46.02163 | 22.37966 | 35995 ft | 415 kts | 343° |
| 2026-05-05 12:51 | 46.07723 | 22.35663 | 36000 ft | 415 kts | 343° |
| 2026-05-05 12:51 | 46.13283 | 22.33355 | 35996 ft | 415 kts | 343° |
| 2026-05-05 12:52 | 46.18803 | 22.31058 | 35998 ft | 415 kts | 343° |
| 2026-05-05 12:52 | 46.24360 | 22.28741 | 36001 ft | 416 kts | 343° |
| 2026-05-05 12:53 | 46.29926 | 22.26416 | 35999 ft | 417 kts | 343° |
| 2026-05-05 12:53 | 46.35500 | 22.24082 | 36001 ft | 417 kts | 343° |
| 2026-05-05 12:54 | 46.43868 | 22.20570 | 35997 ft | 417 kts | 343° |
| 2026-05-05 12:55 | 46.49449 | 22.18221 | 35994 ft | 418 kts | 343° |
| 2026-05-05 12:55 | 46.54998 | 22.15880 | 35999 ft | 418 kts | 343° |
| 2026-05-05 12:56 | 46.60582 | 22.13519 | 35995 ft | 418 kts | 343° |
| 2026-05-05 12:56 | 46.66173 | 22.11151 | 35997 ft | 418 kts | 343° |
| 2026-05-05 12:57 | 46.71771 | 22.08774 | 35995 ft | 419 kts | 343° |
| 2026-05-05 12:57 | 46.77380 | 22.06388 | 35996 ft | 419 kts | 343° |
| 2026-05-05 12:58 | 46.82987 | 22.03997 | 35996 ft | 419 kts | 343° |
| 2026-05-05 12:58 | 46.88594 | 22.01601 | 35991 ft | 420 kts | 343° |
| 2026-05-05 12:59 | 46.94174 | 21.99211 | 35998 ft | 420 kts | 343° |
| 2026-05-05 12:59 | 46.99801 | 21.96796 | 35992 ft | 420 kts | 343° |
| 2026-05-05 13:00 | 47.08202 | 21.93180 | 35996 ft | 421 kts | 343° |
| 2026-05-05 13:01 | 47.19427 | 21.88331 | 35990 ft | 420 kts | 342° |
| 2026-05-05 13:01 | 47.25051 | 21.85893 | 35996 ft | 420 kts | 342° |
| 2026-05-05 13:02 | 47.30625 | 21.83470 | 35992 ft | 420 kts | 342° |
| 2026-05-05 13:02 | 47.36236 | 21.81026 | 35990 ft | 420 kts | 342° |
| 2026-05-05 13:03 | 47.41843 | 21.78578 | 35996 ft | 419 kts | 342° |
| 2026-05-05 13:03 | 47.47441 | 21.76128 | 35990 ft | 419 kts | 342° |
| 2026-05-05 13:04 | 47.53011 | 21.73684 | 35992 ft | 419 kts | 342° |
| 2026-05-05 13:04 | 47.58615 | 21.71221 | 35998 ft | 419 kts | 342° |
| 2026-05-05 13:05 | 47.64181 | 21.68769 | 35989 ft | 419 kts | 342° |
| 2026-05-05 13:05 | 47.69780 | 21.66296 | 35992 ft | 420 kts | 342° |
| 2026-05-05 13:06 | 47.75386 | 21.63815 | 35987 ft | 420 kts | 342° |
| 2026-05-05 13:06 | 47.80989 | 21.61329 | 35987 ft | 420 kts | 342° |
| 2026-05-05 13:07 | 47.86558 | 21.58847 | 35991 ft | 420 kts | 342° |
| 2026-05-05 13:07 | 47.92173 | 21.56337 | 35970 ft | 420 kts | 341° |
| 2026-05-05 13:08 | 47.97785 | 21.53823 | 35968 ft | 421 kts | 341° |
| 2026-05-05 13:08 | 48.03375 | 21.51313 | 35967 ft | 421 kts | 341° |
| 2026-05-05 13:09 | 48.09005 | 21.48780 | 35970 ft | 422 kts | 341° |
| 2026-05-05 13:09 | 48.14627 | 21.46244 | 35968 ft | 423 kts | 341° |
| 2026-05-05 13:10 | 48.20236 | 21.43710 | 35962 ft | 423 kts | 341° |
| 2026-05-05 13:10 | 48.25882 | 21.41151 | 35962 ft | 424 kts | 341° |
| 2026-05-05 13:11 | 48.31539 | 21.38583 | 35956 ft | 424 kts | 341° |
| 2026-05-05 13:11 | 48.37200 | 21.36005 | 35962 ft | 424 kts | 341° |
| 2026-05-05 13:12 | 48.42812 | 21.33444 | 35964 ft | 424 kts | 341° |
| 2026-05-05 13:12 | 48.48464 | 21.30859 | 35962 ft | 424 kts | 341° |
| 2026-05-05 13:13 | 48.54143 | 21.28358 | 35955 ft | 425 kts | 343° |
| 2026-05-05 13:13 | 48.59922 | 21.26368 | 35968 ft | 425 kts | 345° |
| 2026-05-05 13:14 | 48.65712 | 21.24483 | 35969 ft | 425 kts | 345° |
| 2026-05-05 13:14 | 48.68605 | 21.23521 | 35783 ft | 426 kts | 345° |
| 2026-05-05 13:14 | 48.71486 | 21.22550 | 35510 ft | 421 kts | 345° |
| 2026-05-05 13:15 | 48.74295 | 21.21594 | 35261 ft | 414 kts | 345° |
| 2026-05-05 13:15 | 48.77087 | 21.20640 | 35007 ft | 408 kts | 345° |
| 2026-05-05 13:15 | 48.79845 | 21.19693 | 34750 ft | 405 kts | 344° |
| 2026-05-05 13:15 | 48.82598 | 21.18745 | 34507 ft | 404 kts | 344° |
| 2026-05-05 13:16 | 48.85334 | 21.17802 | 34275 ft | 403 kts | 344° |
| 2026-05-05 13:16 | 48.88074 | 21.16856 | 34034 ft | 402 kts | 344° |
| 2026-05-05 13:16 | 48.90762 | 21.15927 | 33777 ft | 401 kts | 344° |
| 2026-05-05 13:16 | 48.93488 | 21.14985 | 33494 ft | 401 kts | 344° |
| 2026-05-05 13:17 | 48.96206 | 21.14044 | 33228 ft | 400 kts | 344° |
| 2026-05-05 13:17 | 48.98924 | 21.13102 | 32956 ft | 400 kts | 344° |
| 2026-05-05 13:17 | 49.01635 | 21.12162 | 32690 ft | 399 kts | 344° |
| 2026-05-05 13:17 | 49.04344 | 21.11222 | 32434 ft | 399 kts | 344° |
| 2026-05-05 13:18 | 49.07056 | 21.10281 | 32167 ft | 398 kts | 344° |
| 2026-05-05 13:18 | 49.09717 | 21.09356 | 31910 ft | 396 kts | 344° |
| 2026-05-05 13:18 | 49.12401 | 21.08422 | 31658 ft | 395 kts | 344° |
| 2026-05-05 13:18 | 49.15083 | 21.07485 | 31396 ft | 393 kts | 344° |
| 2026-05-05 13:19 | 49.17746 | 21.06555 | 31143 ft | 392 kts | 344° |
| 2026-05-05 13:19 | 49.20406 | 21.05626 | 30894 ft | 390 kts | 344° |
| 2026-05-05 13:19 | 49.23043 | 21.04703 | 30640 ft | 388 kts | 344° |
| 2026-05-05 13:19 | 49.25641 | 21.03787 | 30393 ft | 385 kts | 343° |
| 2026-05-05 13:20 | 49.28117 | 21.02393 | 30019 ft | 376 kts | 329° |
| 2026-05-05 13:20 | 49.30321 | 21.00261 | 29418 ft | 372 kts | 319° |
| 2026-05-05 13:20 | 49.32289 | 20.97700 | 28823 ft | 370 kts | 316° |
| 2026-05-05 13:20 | 49.34213 | 20.95095 | 28356 ft | 366 kts | 316° |
| 2026-05-05 13:21 | 49.36093 | 20.92538 | 27838 ft | 364 kts | 315° |
| 2026-05-05 13:21 | 49.37991 | 20.89962 | 27325 ft | 363 kts | 315° |
| 2026-05-05 13:21 | 49.39883 | 20.87397 | 26845 ft | 361 kts | 315° |
| 2026-05-05 13:21 | 49.41769 | 20.84848 | 26370 ft | 359 kts | 315° |
| 2026-05-05 13:22 | 49.43641 | 20.82321 | 25916 ft | 358 kts | 315° |
| 2026-05-05 13:22 | 49.45506 | 20.79805 | 25456 ft | 356 kts | 315° |
| 2026-05-05 13:22 | 49.47343 | 20.77323 | 25034 ft | 354 kts | 315° |
| 2026-05-05 13:22 | 49.49197 | 20.74815 | 24597 ft | 353 kts | 315° |
| 2026-05-05 13:23 | 49.51032 | 20.72332 | 24188 ft | 351 kts | 315° |
| 2026-05-05 13:23 | 49.52868 | 20.69850 | 23789 ft | 349 kts | 315° |
| 2026-05-05 13:23 | 49.54687 | 20.67389 | 23376 ft | 347 kts | 315° |
| 2026-05-05 13:23 | 49.56499 | 20.64933 | 22932 ft | 345 kts | 315° |
| 2026-05-05 13:24 | 49.58297 | 20.62495 | 22488 ft | 343 kts | 315° |
| 2026-05-05 13:24 | 49.60055 | 20.60104 | 22048 ft | 341 kts | 315° |
| 2026-05-05 13:24 | 49.61836 | 20.57684 | 21608 ft | 340 kts | 315° |
| 2026-05-05 13:24 | 49.63600 | 20.55278 | 21200 ft | 338 kts | 315° |
| 2026-05-05 13:25 | 49.65361 | 20.52877 | 20805 ft | 335 kts | 315° |
| 2026-05-05 13:25 | 49.67103 | 20.50501 | 20407 ft | 334 kts | 315° |
| 2026-05-05 13:25 | 49.68848 | 20.48121 | 19978 ft | 333 kts | 315° |
| 2026-05-05 13:25 | 49.70562 | 20.45786 | 19619 ft | 331 kts | 315° |
| 2026-05-05 13:26 | 49.72281 | 20.43439 | 19261 ft | 328 kts | 315° |
| 2026-05-05 13:26 | 49.73992 | 20.41100 | 18901 ft | 327 kts | 314° |
| 2026-05-05 13:26 | 49.75689 | 20.38770 | 18519 ft | 326 kts | 314° |
| 2026-05-05 13:26 | 49.77384 | 20.36435 | 18122 ft | 326 kts | 314° |
| 2026-05-05 13:27 | 49.79080 | 20.34109 | 17706 ft | 324 kts | 314° |
| 2026-05-05 13:27 | 49.80742 | 20.31829 | 17340 ft | 322 kts | 314° |
| 2026-05-05 13:27 | 49.82420 | 20.29524 | 16944 ft | 319 kts | 314° |
| 2026-05-05 13:27 | 49.84074 | 20.27243 | 16560 ft | 318 kts | 314° |
| 2026-05-05 13:28 | 49.85709 | 20.24990 | 16189 ft | 316 kts | 314° |
| 2026-05-05 13:28 | 49.87348 | 20.22726 | 15823 ft | 314 kts | 314° |
| 2026-05-05 13:28 | 49.88978 | 20.20479 | 15475 ft | 312 kts | 314° |
| 2026-05-05 13:28 | 49.90600 | 20.18238 | 15111 ft | 311 kts | 314° |
| 2026-05-05 13:29 | 49.92211 | 20.16009 | 14750 ft | 309 kts | 313° |
| 2026-05-05 13:29 | 49.93810 | 20.13791 | 14381 ft | 308 kts | 314° |
| 2026-05-05 13:29 | 49.95407 | 20.11580 | 14045 ft | 306 kts | 314° |
| 2026-05-05 13:29 | 49.96972 | 20.09409 | 13694 ft | 305 kts | 314° |
| 2026-05-05 13:30 | 49.98554 | 20.07209 | 13313 ft | 303 kts | 313° |
| 2026-05-05 13:30 | 50.00121 | 20.05033 | 12954 ft | 300 kts | 313° |
| 2026-05-05 13:30 | 50.01679 | 20.02865 | 12546 ft | 300 kts | 313° |
| 2026-05-05 13:30 | 50.03213 | 20.00731 | 12182 ft | 298 kts | 313° |
| 2026-05-05 13:31 | 50.04755 | 19.98582 | 11860 ft | 295 kts | 313° |
| 2026-05-05 13:31 | 50.05771 | 19.97166 | 11647 ft | 293 kts | 313° |
| 2026-05-05 13:31 | 50.07777 | 19.94366 | 11224 ft | 290 kts | 313° |
| 2026-05-05 13:31 | 50.09274 | 19.92277 | 10930 ft | 287 kts | 313° |
| 2026-05-05 13:32 | 50.10258 | 19.90901 | 10747 ft | 285 kts | 313° |
| 2026-05-05 13:32 | 50.11730 | 19.88841 | 10445 ft | 283 kts | 313° |
| 2026-05-05 13:32 | 50.13186 | 19.86800 | 10151 ft | 281 kts | 313° |
| 2026-05-05 13:32 | 50.14628 | 19.84774 | 9956 ft | 274 kts | 313° |
| 2026-05-05 13:33 | 50.16028 | 19.82814 | 9765 ft | 269 kts | 313° |
| 2026-05-05 13:33 | 50.17398 | 19.80888 | 9463 ft | 266 kts | 313° |
| 2026-05-05 13:33 | 50.18767 | 19.78967 | 9204 ft | 263 kts | 313° |
| 2026-05-05 13:33 | 50.20127 | 19.77052 | 8927 ft | 263 kts | 312° |
| 2026-05-05 13:34 | 50.21483 | 19.75141 | 8653 ft | 262 kts | 313° |
| 2026-05-05 13:34 | 50.22841 | 19.73224 | 8387 ft | 260 kts | 313° |
| 2026-05-05 13:34 | 50.24135 | 19.71347 | 8207 ft | 256 kts | 312° |
| 2026-05-05 13:34 | 50.25476 | 19.69452 | 7961 ft | 263 kts | 313° |
| 2026-05-05 13:35 | 50.26858 | 19.67519 | 7676 ft | 270 kts | 313° |
| 2026-05-05 13:35 | 50.28274 | 19.65536 | 7414 ft | 275 kts | 314° |
| 2026-05-05 13:35 | 50.29698 | 19.63538 | 7127 ft | 275 kts | 313° |
| 2026-05-05 13:35 | 50.31117 | 19.61524 | 6782 ft | 276 kts | 313° |
| 2026-05-05 13:36 | 50.32536 | 19.59518 | 6525 ft | 272 kts | 313° |
| 2026-05-05 13:36 | 50.33939 | 19.57530 | 6237 ft | 273 kts | 313° |
| 2026-05-05 13:36 | 50.35338 | 19.55542 | 5915 ft | 275 kts | 313° |
| 2026-05-05 13:36 | 50.36760 | 19.53522 | 5614 ft | 276 kts | 313° |
| 2026-05-05 13:37 | 50.38187 | 19.51498 | 5328 ft | 277 kts | 313° |
| 2026-05-05 13:37 | 50.39599 | 19.49491 | 5184 ft | 270 kts | 312° |
| 2026-05-05 13:37 | 50.40958 | 19.47522 | 5027 ft | 262 kts | 313° |
| 2026-05-05 13:37 | 50.42288 | 19.45649 | 4951 ft | 252 kts | 314° |
| 2026-05-05 13:38 | 50.43581 | 19.43841 | 4845 ft | 247 kts | 313° |
| 2026-05-05 13:38 | 50.44838 | 19.42042 | 4702 ft | 242 kts | 313° |
| 2026-05-05 13:38 | 50.46080 | 19.40267 | 4508 ft | 241 kts | 313° |
| 2026-05-05 13:38 | 50.47085 | 19.38297 | 4437 ft | 220 kts | 285° |
| 2026-05-05 13:39 | 50.47354 | 19.36043 | 4199 ft | 209 kts | 270° |
| 2026-05-05 13:39 | 50.47509 | 19.33790 | 3892 ft | 204 kts | 269° |
| 2026-05-05 13:39 | 50.47574 | 19.31627 | 3638 ft | 193 kts | 265° |
| 2026-05-05 13:39 | 50.47580 | 19.29563 | 3413 ft | 185 kts | 263° |
| 2026-05-05 13:40 | 50.47568 | 19.27553 | 3174 ft | 183 kts | 265° |
| 2026-05-05 13:40 | 50.47578 | 19.25571 | 2955 ft | 183 kts | 263° |
| 2026-05-05 13:40 | 50.47580 | 19.23559 | 2684 ft | 182 kts | 265° |
| 2026-05-05 13:40 | 50.47582 | 19.21583 | 2458 ft | 181 kts | 265° |
| 2026-05-05 13:41 | 50.47614 | 19.19652 | 2220 ft | 172 kts | 265° |
| 2026-05-05 13:41 | 50.47587 | 19.17852 | 2027 ft | 160 kts | 261° |
| 2026-05-05 13:41 | 50.47585 | 19.16153 | 1824 ft | 151 kts | 264° |
| 2026-05-05 13:41 | 50.47588 | 19.14562 | 1642 ft | 141 kts | 265° |
| 2026-05-05 13:42 | 50.47596 | 19.13019 | 1438 ft | 141 kts | 267° |
| 2026-05-05 13:42 | 50.47600 | 19.11392 | 1257 ft | 157 kts | 265° |
| 2026-05-05 13:42 | 50.47596 | 19.09682 | 1069 ft | 154 kts | 265° |
| 2026-05-05 13:42 | 50.47595 | 19.08157 | 1023 ft | 116 kts | 271° |
| 2026-05-05 13:43 | 50.47591 | 19.07238 | 1015 ft | 49 kts | 266° |
| 2026-05-05 13:43 | 50.47517 | 19.06935 | 1018 ft | 19 kts | 239° |
| 2026-05-05 13:43 | 50.47450 | 19.06852 | 1012 ft | 13 kts | 158° |
| 2026-05-05 13:43 | 50.47428 | 19.06982 | 1013 ft | 13 kts | 90° |
| 2026-05-05 13:44 | 50.47427 | 19.07120 | 1014 ft | 12 kts | 90° |
| 2026-05-05 13:44 | 50.47427 | 19.07253 | 1016 ft | 12 kts | 90° |
| 2026-05-05 13:44 | 50.47426 | 19.07384 | 1017 ft | 12 kts | 90° |
| 2026-05-05 13:44 | 50.47426 | 19.07512 | 1018 ft | 12 kts | 90° |
| 2026-05-05 13:45 | 50.47426 | 19.07636 | 1021 ft | 11 kts | 90° |
| 2026-05-05 13:45 | 50.47426 | 19.07756 | 1020 ft | 11 kts | 90° |
| 2026-05-05 13:45 | 50.47426 | 19.07871 | 1021 ft | 10 kts | 90° |
| 2026-05-05 13:45 | 50.47425 | 19.07984 | 1024 ft | 10 kts | 90° |
| 2026-05-05 13:46 | 50.47425 | 19.08070 | 1026 ft | 4 kts | 90° |
| 2026-05-05 13:46 | 50.47425 | 19.08095 | 1026 ft | 0 kts | 90° |
| 2026-05-05 13:48 | 50.47425 | 19.08103 | 1027 ft | 2 kts | 90° |
| 2026-05-05 13:48 | 50.47425 | 19.08168 | 1024 ft | 10 kts | 90° |
| 2026-05-05 13:48 | 50.47424 | 19.08318 | 1027 ft | 18 kts | 90° |
| 2026-05-05 13:49 | 50.47421 | 19.08538 | 1030 ft | 17 kts | 102° |
| 2026-05-05 13:49 | 50.47321 | 19.08583 | 1029 ft | 16 kts | 179° |
| 2026-05-05 13:49 | 50.47233 | 19.08645 | 1029 ft | 15 kts | 95° |
| 2026-05-05 13:49 | 50.47232 | 19.08808 | 1030 ft | 15 kts | 90° |
| 2026-05-05 13:50 | 50.47231 | 19.08967 | 1032 ft | 14 kts | 91° |
| 2026-05-05 13:50 | 50.47198 | 19.09076 | 1033 ft | 12 kts | 180° |
| 2026-05-05 13:50 | 50.47143 | 19.09075 | 1033 ft | 0 kts | 180° |
| 2026-05-05 13:50 | 50.47141 | 19.09075 | 1034 ft | 0 kts | 179° |